Time;durP1;ratioP1;P1;durP2;ratioP2;P2;SDS_P1;SDS_P2;PMS_P1;PMS_P2;Temp;Humidity;BMP_temperature;BMP_pressure;BME280_temperature;BME280_humidity;BME280_pressure;Samples;Min_cycle;Max_cycle;Signal;HPM_P1;HPM_P2
2022/02/14 00:00:20;;;;;;;7.70;4.10;;;;;;;0.48;61.78;95918.94;5021562;28;20053;-81
2022/02/14 00:02:47;;;;;;;9.45;4.88;;;;;;;0.43;62.00;95906.34;5022757;28;20077;-81
2022/02/14 00:05:15;;;;;;;8.70;3.90;;;;;;;0.31;62.10;95897.72;5022048;28;20042;-81
2022/02/14 00:07:42;;;;;;;8.73;4.05;;;;;;;0.29;62.19;95905.22;5022645;28;20050;-82
2022/02/14 00:10:09;;;;;;;7.25;3.60;;;;;;;0.04;61.96;95899.78;5022821;28;20057;-82
2022/02/14 00:12:39;;;;;;;7.53;3.65;;;;;;;-0.04;62.96;95885.84;5029856;28;20054;-83
2022/02/14 00:15:07;;;;;;;7.25;3.50;;;;;;;-0.03;63.08;95895.47;5042790;28;20128;-83
2022/02/14 00:17:33;;;;;;;6.53;3.65;;;;;;;-0.07;62.66;95896.25;5042240;28;20073;-82
2022/02/14 00:19:59;;;;;;;7.90;3.78;;;;;;;-0.13;63.23;95886.59;5042841;28;20428;-83
2022/02/14 00:22:28;;;;;;;7.70;3.13;;;;;;;-0.09;62.57;95882.34;5042471;28;20049;-82
2022/02/14 00:24:54;;;;;;;8.13;3.58;;;;;;;-0.02;62.11;95877.53;5041376;28;20045;-83
2022/02/14 00:27:22;;;;;;;8.77;3.60;;;;;;;-0.04;62.39;95868.97;5041427;28;20500;-83
2022/02/14 00:29:49;;;;;;;9.70;3.38;;;;;;;-0.08;62.82;95873.25;5041490;28;20052;-82
2022/02/14 00:32:16;;;;;;;6.35;3.35;;;;;;;-0.17;63.40;95874.81;5043354;28;20111;-82
2022/02/14 00:34:42;;;;;;;6.15;3.20;;;;;;;-0.24;62.60;95863.56;5043106;28;20057;-83
2022/02/14 00:37:11;;;;;;;6.60;3.50;;;;;;;-0.23;62.78;95857.13;5042725;28;20087;-81
2022/02/14 00:39:39;;;;;;;8.15;3.35;;;;;;;-0.19;62.69;95855.53;5042294;28;20045;-81
2022/02/14 00:42:06;;;;;;;5.65;3.30;;;;;;;-0.17;62.24;95864.09;5037781;28;20058;-81
2022/02/14 00:44:33;;;;;;;5.90;3.08;;;;;;;-0.13;61.65;95851.81;5022532;28;20050;-81
2022/02/14 00:46:59;;;;;;;5.97;3.08;;;;;;;-0.09;61.30;95860.94;5021951;28;20046;-82
2022/02/14 00:49:26;;;;;;;6.88;3.35;;;;;;;-0.07;61.08;95854.25;5021900;28;20485;-82
2022/02/14 00:51:53;;;;;;;6.07;3.33;;;;;;;-0.07;60.90;95859.59;5022360;28;20056;-82
2022/02/14 00:54:19;;;;;;;5.93;3.40;;;;;;;-0.02;61.26;95856.13;5021789;28;20042;-82
2022/02/14 00:56:47;;;;;;;6.30;3.30;;;;;;;-0.01;60.44;95852.38;5020911;28;20045;-82
2022/02/14 00:59:13;;;;;;;8.52;3.08;;;;;;;0.00;60.19;95848.66;5019035;28;20046;-83
2022/02/14 01:01:40;;;;;;;7.47;2.83;;;;;;;0.03;59.91;95845.44;5020910;28;20456;-83
2022/02/14 01:04:07;;;;;;;8.30;3.08;;;;;;;0.07;59.30;95837.69;5021044;28;20104;-82
2022/02/14 01:06:33;;;;;;;7.32;3.28;;;;;;;0.11;58.54;95850.28;5021574;28;20512;-82
2022/02/14 01:09:00;;;;;;;5.32;2.72;;;;;;;0.11;58.51;95844.94;5019974;28;20042;-83
2022/02/14 01:11:26;;;;;;;5.45;2.78;;;;;;;0.16;57.70;95842.28;5017939;28;20050;-82
2022/02/14 01:13:54;;;;;;;6.13;2.60;;;;;;;0.19;57.87;95841.72;5038273;28;20056;-82
2022/02/14 01:16:21;;;;;;;5.53;2.55;;;;;;;0.23;57.33;95837.47;5040079;28;20068;-82
2022/02/14 01:18:48;;;;;;;5.85;2.55;;;;;;;0.25;56.53;95840.66;5039100;28;20049;-83
2022/02/14 01:21:15;;;;;;;5.15;2.40;;;;;;;0.29;56.41;95840.16;5040228;28;20654;-82
2022/02/14 01:23:42;;;;;;;4.53;2.58;;;;;;;0.32;55.68;95840.44;5040894;28;20053;-83
2022/02/14 01:26:08;;;;;;;4.57;2.70;;;;;;;0.35;55.58;95839.09;5040551;28;20049;-81
2022/02/14 01:28:35;;;;;;;5.18;2.50;;;;;;;0.39;55.53;95845.53;5039738;28;20050;-81
2022/02/14 01:31:03;;;;;;;3.47;2.10;;;;;;;0.41;55.39;95833.47;5039521;28;20046;-81
2022/02/14 01:33:29;;;;;;;4.28;2.58;;;;;;;0.41;55.34;95832.66;5039329;28;20053;-82
2022/02/14 01:35:56;;;;;;;5.15;2.58;;;;;;;0.44;54.96;95832.13;5040233;28;20053;-81
2022/02/14 01:38:22;;;;;;;4.80;2.50;;;;;;;0.44;54.95;95826.78;5039879;28;20770;-83
2022/02/14 01:40:48;;;;;;;5.78;2.65;;;;;;;0.44;54.86;95822.22;5037833;28;20049;-82
2022/02/14 01:43:15;;;;;;;5.57;2.63;;;;;;;0.46;54.67;95813.91;5026901;28;20054;-82
2022/02/14 01:45:42;;;;;;;5.32;2.60;;;;;;;0.47;54.22;95813.66;5020053;28;20061;-82
2022/02/14 01:48:10;;;;;;;4.68;2.58;;;;;;;0.46;54.16;95808.56;5019924;28;20527;-83
2022/02/14 01:50:37;;;;;;;4.45;2.30;;;;;;;0.49;53.45;95808.84;5019824;28;20080;-81
2022/02/14 01:53:05;;;;;;;4.65;2.42;;;;;;;0.51;53.44;95801.31;5018568;28;20041;-82
2022/02/14 01:55:32;;;;;;;2.75;1.80;;;;;;;0.55;52.44;95800.81;5019027;28;20057;-82
2022/02/14 01:58:01;;;;;;;3.90;2.25;;;;;;;0.58;51.97;95793.03;5019652;28;20061;-83
2022/02/14 02:00:29;;;;;;;4.45;2.20;;;;;;;0.61;51.46;95784.44;5018191;28;20053;-82
2022/02/14 02:02:55;;;;;;;3.83;2.13;;;;;;;0.66;51.22;95787.13;5017619;28;20076;-81
2022/02/14 02:05:25;;;;;;;3.28;1.85;;;;;;;0.70;51.48;95785.53;5018274;28;20060;-82
2022/02/14 02:07:52;;;;;;;3.70;1.85;;;;;;;0.74;50.91;95781.25;5018516;28;20079;-82
2022/02/14 02:10:20;;;;;;;4.72;2.22;;;;;;;0.73;50.98;95787.69;5018194;28;20085;-82
2022/02/14 02:12:50;;;;;;;3.65;1.95;;;;;;;0.75;50.93;95769.44;5017825;28;20061;-82
2022/02/14 02:15:17;;;;;;;5.22;2.83;;;;;;;0.75;51.07;95769.44;5018377;28;20046;-82
2022/02/14 02:17:43;;;;;;;4.28;2.80;;;;;;;0.76;50.84;95764.88;5018477;28;20061;-83
2022/02/14 02:20:14;;;;;;;3.30;1.90;;;;;;;0.75;50.96;95764.09;5017129;28;20049;-82
2022/02/14 02:22:43;;;;;;;2.90;1.50;;;;;;;0.76;50.51;95764.88;5018208;28;20111;-81
2022/02/14 02:25:13;;;;;;;4.28;1.83;;;;;;;0.75;50.73;95761.41;5016749;28;20049;-81
2022/02/14 02:27:42;;;;;;;4.00;2.20;;;;;;;0.79;50.49;95756.31;5017606;28;20080;-82
2022/02/14 02:30:11;;;;;;;3.45;1.95;;;;;;;0.80;50.40;95746.41;5016016;28;20145;-82
2022/02/14 02:32:38;;;;;;;2.58;1.50;;;;;;;0.81;50.10;95745.31;5018661;28;20056;-82
2022/02/14 02:35:07;;;;;;;5.80;1.88;;;;;;;0.81;49.71;95742.63;5017212;28;20055;-82
2022/02/14 02:37:34;;;;;;;3.03;1.65;;;;;;;0.78;49.75;95739.44;5017881;28;20461;-83
2022/02/14 02:40:01;;;;;;;5.05;1.83;;;;;;;0.81;50.03;95746.13;5017853;28;20497;-82
2022/02/14 02:42:29;;;;;;;3.53;1.90;;;;;;;0.84;50.03;95744.78;5023877;28;20069;-81
2022/02/14 02:44:56;;;;;;;3.45;1.80;;;;;;;0.83;49.80;95748.53;5038356;28;20050;-82
2022/02/14 02:47:24;;;;;;;4.68;1.95;;;;;;;0.83;49.51;95749.31;5035821;28;20049;-82
2022/02/14 02:49:52;;;;;;;3.13;1.70;;;;;;;0.85;48.99;95741.03;5038393;28;20053;-82
2022/02/14 02:52:20;;;;;;;2.67;1.50;;;;;;;0.82;49.70;95741.56;5037340;28;20053;-83
2022/02/14 02:54:47;;;;;;;4.40;2.08;;;;;;;0.84;50.01;95742.09;5038454;28;20053;-82
2022/02/14 02:57:14;;;;;;;4.53;1.98;;;;;;;0.83;50.50;95738.59;5036879;28;20091;-81
2022/02/14 02:59:44;;;;;;;4.55;1.70;;;;;;;0.85;50.54;95741.03;5038699;28;20475;-83
2022/02/14 03:02:11;;;;;;;6.10;1.80;;;;;;;0.81;49.88;95732.72;5037529;28;20479;-83
2022/02/14 03:04:38;;;;;;;4.15;2.00;;;;;;;0.82;50.28;95726.28;5036123;28;20106;-83
2022/02/14 03:07:05;;;;;;;4.80;1.92;;;;;;;0.83;51.03;95727.06;5037800;28;20042;-82
2022/02/14 03:09:31;;;;;;;2.95;1.60;;;;;;;0.76;51.25;95728.16;5038006;28;20058;-82
2022/02/14 03:11:58;;;;;;;3.05;1.63;;;;;;;0.75;51.18;95731.91;5035190;28;20056;-82
2022/02/14 03:14:25;;;;;;;4.30;1.75;;;;;;;0.72;51.88;95734.34;5037053;28;20046;-82
2022/02/14 03:16:53;;;;;;;3.78;1.80;;;;;;;0.67;52.00;95724.41;5039066;28;20042;-82
2022/02/14 03:19:21;;;;;;;2.85;1.52;;;;;;;0.68;52.25;95730.59;5036702;28;20045;-83
2022/02/14 03:21:47;;;;;;;5.32;2.17;;;;;;;0.63;51.98;95725.25;5035576;28;20046;-82
2022/02/14 03:24:14;;;;;;;4.63;1.67;;;;;;;0.57;52.34;95724.44;5037432;28;20038;-82
2022/02/14 03:26:41;;;;;;;5.50;2.30;;;;;;;0.49;52.32;95723.13;5039220;28;20041;-82
2022/02/14 03:29:07;;;;;;;4.15;2.10;;;;;;;0.37;52.85;95727.16;5039142;28;20046;-81
2022/02/14 03:31:34;;;;;;;4.65;1.90;;;;;;;0.31;53.50;95722.84;5038837;28;20060;-82
2022/02/14 03:34:01;;;;;;;6.60;3.80;;;;;;;0.27;53.51;95727.94;5039284;28;20053;-82
2022/02/14 03:36:28;;;;;;;6.97;3.63;;;;;;;0.29;53.10;95723.13;5037114;28;20057;-82
2022/02/14 03:38:55;;;;;;;6.82;3.70;;;;;;;0.19;53.93;95718.56;5038559;28;20056;-82
2022/02/14 03:41:21;;;;;;;5.95;3.03;;;;;;;0.10;54.83;95720.16;5025415;28;20057;-83
2022/02/14 03:43:47;;;;;;;8.18;2.50;;;;;;;0.13;54.25;95724.19;5022851;28;20046;-82
2022/02/14 03:46:14;;;;;;;6.72;2.42;;;;;;;0.02;54.61;95717.22;5021718;28;20622;-81
2022/02/14 03:48:41;;;;;;;3.60;2.00;;;;;;;-0.01;54.74;95713.19;5022286;28;20045;-82
2022/02/14 03:51:10;;;;;;;5.50;2.13;;;;;;;-0.03;54.98;95710.00;5022184;28;20049;-81
2022/02/14 03:53:36;;;;;;;5.40;2.30;;;;;;;-0.08;55.86;95702.75;5022197;28;20054;-82
2022/02/14 03:56:05;;;;;;;4.07;1.75;;;;;;;-0.10;56.38;95699.56;5022965;28;20251;-79
2022/02/14 03:58:31;;;;;;;6.25;2.47;;;;;;;-0.11;56.18;95695.25;5023200;28;20084;-83
2022/02/14 04:00:58;;;;;;;7.75;2.10;;;;;;;-0.16;56.69;95689.91;5023264;28;20046;-83
2022/02/14 04:03:24;;;;;;;12.52;4.20;;;;;;;-0.18;56.64;95691.25;5022339;28;20086;-82
2022/02/14 04:05:51;;;;;;;7.18;2.92;;;;;;;-0.18;56.77;95691.25;5023162;28;20046;-82
2022/02/14 04:08:19;;;;;;;3.45;1.73;;;;;;;-0.19;57.12;95695.00;5022304;28;20050;-83
2022/02/14 04:10:46;;;;;;;5.32;1.98;;;;;;;-0.22;57.26;95695.50;5022571;28;20057;-83
2022/02/14 04:13:13;;;;;;;5.60;2.47;;;;;;;-0.27;57.74;95694.44;5022052;28;20080;-81
2022/02/14 04:15:39;;;;;;;4.55;1.67;;;;;;;-0.24;58.09;95694.97;5023077;28;20088;-83
2022/02/14 04:18:08;;;;;;;4.22;1.95;;;;;;;-0.27;57.83;95688.28;5022519;28;20049;-82
2022/02/14 04:20:35;;;;;;;4.10;1.77;;;;;;;-0.25;57.92;95685.34;5022635;28;20075;-83
2022/02/14 04:23:02;;;;;;;4.10;1.83;;;;;;;-0.30;57.10;95684.28;5023506;28;20050;-82
2022/02/14 04:25:31;;;;;;;3.28;1.55;;;;;;;-0.31;56.91;95682.69;5023247;28;20050;-83
2022/02/14 04:27:57;;;;;;;5.05;2.08;;;;;;;-0.36;56.37;95690.69;5023665;28;20382;-83
2022/02/14 04:30:24;;;;;;;4.22;1.98;;;;;;;-0.38;56.78;95681.31;5013170;28;20042;-82
2022/02/14 04:32:53;;;;;;;2.58;1.73;;;;;;;-0.39;56.44;95679.72;5025403;28;20065;-82
2022/02/14 04:35:19;;;;;;;5.95;1.85;;;;;;;-0.39;56.72;95677.03;5024671;28;20493;-82
2022/02/14 04:37:46;;;;;;;5.30;2.03;;;;;;;-0.39;56.62;95685.84;5025500;28;20054;-82
2022/02/14 04:40:13;;;;;;;5.32;1.90;;;;;;;-0.45;56.85;95676.22;5024790;28;20057;-83
2022/02/14 04:42:41;;;;;;;6.28;1.75;;;;;;;-0.50;57.95;95662.84;5024434;28;20038;-82
2022/02/14 04:45:09;;;;;;;7.50;1.85;;;;;;;-0.47;58.49;95667.66;5023479;28;20049;-82
2022/02/14 04:47:35;;;;;;;8.52;2.17;;;;;;;-0.44;57.74;95672.47;5025207;28;20073;-83
2022/02/14 04:50:02;;;;;;;5.43;2.53;;;;;;;-0.41;56.72;95666.59;5025330;28;20038;-83
2022/02/14 04:52:28;;;;;;;4.40;1.90;;;;;;;-0.52;57.35;95659.63;5022745;28;20050;-81
2022/02/14 04:54:55;;;;;;;5.93;1.95;;;;;;;-0.55;58.30;95654.81;5025563;28;20057;-83
2022/02/14 04:57:21;;;;;;;6.15;1.83;;;;;;;-0.53;58.89;95652.66;5024301;28;20045;-82
2022/02/14 04:59:50;;;;;;;7.07;2.58;;;;;;;-0.46;58.00;95657.78;5025315;28;20061;-82
2022/02/14 05:02:17;;;;;;;3.55;1.95;;;;;;;-0.48;57.83;95652.66;5023961;28;20041;-82
2022/02/14 05:04:43;;;;;;;5.32;2.30;;;;;;;-0.50;57.84;95646.00;5023273;28;20077;-82
2022/02/14 05:07:10;;;;;;;5.88;1.75;;;;;;;-0.51;57.75;95645.19;5024277;28;20061;-83
2022/02/14 05:09:36;;;;;;;3.78;1.90;;;;;;;-0.52;58.02;95648.94;5023956;28;20057;-83
2022/02/14 05:12:03;;;;;;;5.45;1.77;;;;;;;-0.54;58.33;95651.06;5041279;28;20316;-80
2022/02/14 05:14:30;;;;;;;4.63;2.10;;;;;;;-0.54;58.71;95640.34;5045564;28;20049;-84
2022/02/14 05:16:58;;;;;;;8.70;1.90;;;;;;;-0.52;58.21;95643.59;5044705;28;20079;-82
2022/02/14 05:19:25;;;;;;;5.22;2.05;;;;;;;-0.53;57.79;95637.41;5043723;28;20048;-82
2022/02/14 05:21:51;;;;;;;3.55;1.70;;;;;;;-0.53;58.13;95636.59;5041405;28;20049;-83
2022/02/14 05:24:18;;;;;;;3.55;1.45;;;;;;;-0.55;58.21;95628.06;5042168;28;20046;-82
2022/02/14 05:26:44;;;;;;;3.00;1.40;;;;;;;-0.49;57.99;95642.25;5043506;28;20056;-82
2022/02/14 05:29:11;;;;;;;2.25;1.40;;;;;;;-0.47;57.98;95645.44;5043238;28;20053;-82
2022/02/14 05:31:37;;;;;;;5.43;1.80;;;;;;;-0.53;58.35;95647.31;5043473;28;20053;-82
2022/02/14 05:34:06;;;;;;;4.38;2.30;;;;;;;-0.59;58.56;95651.84;5044108;28;20045;-83
2022/02/14 05:36:32;;;;;;;4.85;2.53;;;;;;;-0.64;58.71;95651.03;5043368;28;20060;-83
2022/02/14 05:38:59;;;;;;;7.20;3.55;;;;;;;-0.65;58.39;95646.75;5043550;28;20041;-83
2022/02/14 05:41:25;;;;;;;6.43;3.13;;;;;;;-0.67;59.16;95647.03;5031904;28;20049;-87
2022/02/14 05:43:52;;;;;;;8.80;4.47;;;;;;;-0.69;58.31;95665.19;5022506;28;20511;-82
2022/02/14 05:46:18;;;;;;;9.40;4.32;;;;;;;-0.76;58.88;95663.84;5022121;28;20046;-81
2022/02/14 05:48:47;;;;;;;9.70;3.10;;;;;;;-0.81;59.74;95662.75;5023762;28;20042;-83
2022/02/14 05:51:17;;;;;;;9.77;3.22;;;;;;;-0.75;58.90;95665.44;5017811;28;20050;-80
2022/02/14 05:53:44;;;;;;;6.63;3.03;;;;;;;-0.74;58.96;95661.69;5008122;28;20053;-79
2022/02/14 05:56:11;;;;;;;9.88;3.92;;;;;;;-0.78;58.73;95666.78;5006992;28;20140;-78
2022/02/14 05:58:37;;;;;;;9.68;3.45;;;;;;;-0.83;59.66;95654.22;5006584;28;20050;-78
2022/02/14 06:01:04;;;;;;;6.82;4.10;;;;;;;-0.88;59.58;95658.75;5007134;28;20053;-81
2022/02/14 06:03:30;;;;;;;7.93;4.10;;;;;;;-0.79;59.49;95659.81;5005492;28;20681;-79
2022/02/14 06:05:57;;;;;;;22.17;9.68;;;;;;;-0.78;59.32;95661.44;5006715;28;20049;-78
2022/02/14 06:08:25;;;;;;;31.05;12.48;;;;;;;-0.74;59.71;95659.03;5006124;28;20053;-77
2022/02/14 06:10:52;;;;;;;25.15;10.57;;;;;;;-0.76;60.02;95658.50;5011905;28;20053;-77
2022/02/14 06:13:18;;;;;;;23.23;9.88;;;;;;;-0.69;59.66;95664.38;5024839;28;20496;-77
2022/02/14 06:15:45;;;;;;;19.63;9.82;;;;;;;-0.63;59.41;95669.47;5024614;28;20049;-76
2022/02/14 06:18:11;;;;;;;8.90;4.22;;;;;;;-0.67;59.80;95667.63;5026236;28;20041;-76
2022/02/14 06:20:38;;;;;;;8.52;3.67;;;;;;;-0.72;60.15;95663.06;5026048;28;20049;-76
2022/02/14 06:23:05;;;;;;;15.88;4.88;;;;;;;-0.73;60.01;95664.13;5026441;28;20046;-76
2022/02/14 06:25:33;;;;;;;14.43;4.63;;;;;;;-0.70;59.69;95658.25;5025670;28;20053;-75
2022/02/14 06:28:00;;;;;;;12.00;5.32;;;;;;;-0.68;59.41;95666.00;5026576;28;20053;-75
2022/02/14 06:30:27;;;;;;;6.50;2.33;;;;;;;-0.67;59.88;95667.63;5025296;28;20041;-76
2022/02/14 06:32:54;;;;;;;6.68;2.58;;;;;;;-0.69;59.97;95659.84;5026223;28;20049;-76
2022/02/14 06:35:21;;;;;;;7.38;3.67;;;;;;;-0.65;60.29;95665.47;5025457;28;20148;-76
2022/02/14 06:37:47;;;;;;;11.30;4.88;;;;;;;-0.61;60.23;95661.22;5025514;28;20053;-76
2022/02/14 06:40:14;;;;;;;9.30;4.03;;;;;;;-0.51;59.75;95661.25;5023166;28;20400;-76
2022/02/14 06:42:43;;;;;;;13.93;5.43;;;;;;;-0.46;59.65;95661.25;5025555;28;20103;-76
2022/02/14 06:45:09;;;;;;;14.07;4.38;;;;;;;-0.44;60.44;95659.09;5026242;28;20049;-76
2022/02/14 06:47:36;;;;;;;13.38;4.85;;;;;;;-0.38;60.53;95655.34;5025651;28;20104;-76
2022/02/14 06:50:03;;;;;;;8.60;4.45;;;;;;;-0.40;60.52;95652.16;5024448;28;20539;-75
2022/02/14 06:52:29;;;;;;;12.60;4.80;;;;;;;-0.33;60.73;95658.03;5025428;28;20412;-76
2022/02/14 06:54:56;;;;;;;15.55;5.50;;;;;;;-0.36;59.63;95653.25;5025942;28;20671;-75
2022/02/14 06:57:22;;;;;;;14.40;5.80;;;;;;;-0.24;60.21;95665.56;5025656;28;20053;-76
2022/02/14 06:59:50;;;;;;;15.02;5.97;;;;;;;-0.10;59.96;95661.28;5025799;28;20050;-76
2022/02/14 07:02:17;;;;;;;10.55;5.68;;;;;;;0.07;60.13;95667.16;5025765;28;20065;-76
2022/02/14 07:04:43;;;;;;;9.35;4.13;;;;;;;0.20;59.51;95650.56;5026562;28;20049;-76
2022/02/14 07:07:10;;;;;;;10.57;5.28;;;;;;;0.29;59.68;95652.69;5025935;28;20054;-76
2022/02/14 07:09:37;;;;;;;14.65;5.75;;;;;;;0.50;58.62;95657.75;5025321;28;20049;-76
2022/02/14 07:12:04;;;;;;;12.40;4.88;;;;;;;0.68;59.17;95651.03;5023378;28;20219;-77
2022/02/14 07:14:31;;;;;;;19.48;4.90;;;;;;;0.91;58.88;95654.16;5025968;28;20133;-76
2022/02/14 07:16:59;;;;;;;13.93;5.15;;;;;;;1.03;58.97;95641.22;5030203;28;20053;-76
2022/02/14 07:19:25;;;;;;;19.45;5.63;;;;;;;1.13;58.71;95640.38;5028901;28;20045;-76
2022/02/14 07:21:52;;;;;;;22.30;4.97;;;;;;;1.28;58.24;95645.69;5029684;28;20049;-76
2022/02/14 07:24:18;;;;;;;11.75;5.15;;;;;;;1.38;56.55;95647.50;5029242;28;20049;-76
2022/02/14 07:26:45;;;;;;;11.00;4.75;;;;;;;1.51;57.40;95652.25;5029543;28;20052;-76
2022/02/14 07:29:11;;;;;;;16.00;4.32;;;;;;;1.56;55.04;95650.34;5029389;28;20049;-77
2022/02/14 07:31:38;;;;;;;6.88;3.35;;;;;;;1.64;55.55;95646.28;5028829;28;20053;-76
2022/02/14 07:34:06;;;;;;;5.70;3.10;;;;;;;1.62;55.94;95648.47;5029496;28;20050;-75
2022/02/14 07:36:33;;;;;;;9.73;3.72;;;;;;;1.65;56.24;95647.88;5029124;28;20057;-76
2022/02/14 07:38:59;;;;;;;6.47;3.58;;;;;;;1.70;57.51;95644.38;5029792;28;20049;-76
2022/02/14 07:41:26;;;;;;;8.07;2.97;;;;;;;1.79;56.95;95638.13;5025941;28;20054;-77
2022/02/14 07:43:52;;;;;;;6.97;3.10;;;;;;;1.95;56.80;95652.25;5029619;28;20057;-78
2022/02/14 07:46:19;;;;;;;8.07;2.97;;;;;;;2.09;54.94;95644.34;5028806;28;20056;-76
2022/02/14 07:48:46;;;;;;;6.50;3.13;;;;;;;2.23;54.33;95647.19;5028794;28;20049;-76
2022/02/14 07:51:15;;;;;;;5.82;3.13;;;;;;;2.44;52.72;95643.22;5029136;28;20107;-76
2022/02/14 07:53:41;;;;;;;11.40;3.10;;;;;;;2.66;52.85;95636.56;5028674;28;20073;-76
2022/02/14 07:56:12;;;;;;;5.55;2.47;;;;;;;2.74;46.95;95635.94;5029165;28;20111;-76
2022/02/14 07:58:39;;;;;;;5.68;2.92;;;;;;;2.81;50.52;95636.38;5028471;28;20499;-77
2022/02/14 08:01:05;;;;;;;7.57;3.13;;;;;;;2.94;49.94;95632.22;5029039;28;20052;-76
2022/02/14 08:03:32;;;;;;;7.30;3.45;;;;;;;3.07;50.51;95634.19;5028334;28;20057;-76
2022/02/14 08:05:58;;;;;;;11.00;3.70;;;;;;;3.18;51.14;95629.50;5029131;28;20078;-77
2022/02/14 08:08:26;;;;;;;12.35;4.05;;;;;;;3.35;51.39;95627.94;5028406;28;20052;-77
2022/02/14 08:10:53;;;;;;;9.70;3.63;;;;;;;3.52;49.67;95629.31;5026363;28;20056;-76
2022/02/14 08:13:20;;;;;;;9.05;4.05;;;;;;;3.59;47.95;95629.75;5028545;28;20050;-75
2022/02/14 08:15:46;;;;;;;11.40;3.90;;;;;;;3.77;48.52;95634.34;5028467;28;20057;-76
2022/02/14 08:18:13;;;;;;;8.75;3.60;;;;;;;4.01;49.03;95628.06;5028729;28;20144;-77
2022/02/14 08:20:39;;;;;;;7.68;3.85;;;;;;;4.17;49.44;95627.50;5028429;28;20050;-76
2022/02/14 08:23:07;;;;;;;8.13;3.30;;;;;;;4.47;47.19;95625.41;5029065;28;20480;-76
2022/02/14 08:25:35;;;;;;;5.10;2.45;;;;;;;4.73;45.82;95614.94;5028175;28;20057;-76
2022/02/14 08:28:03;;;;;;;3.70;2.00;;;;;;;5.00;41.35;95614.16;5028381;28;20073;-77
2022/02/14 08:30:32;;;;;;;4.95;2.08;;;;;;;5.24;40.81;95608.56;5028056;28;20057;-76
2022/02/14 08:32:58;;;;;;;5.82;2.50;;;;;;;5.40;41.79;95612.53;5028649;28;20052;-79
2022/02/14 08:35:25;;;;;;;7.30;2.38;;;;;;;5.48;42.25;95605.59;5028241;28;20091;-76
2022/02/14 08:37:53;;;;;;;6.40;2.20;;;;;;;5.57;42.09;95605.69;5028273;28;20053;-77
2022/02/14 08:40:20;;;;;;;5.55;2.00;;;;;;;5.67;40.07;95613.56;5025781;28;20128;-76
2022/02/14 08:42:47;;;;;;;4.85;2.00;;;;;;;5.88;39.69;95611.19;5028141;28;20052;-76
2022/02/14 08:45:14;;;;;;;9.48;2.35;;;;;;;6.58;39.38;95612.47;5028685;28;20045;-76
2022/02/14 08:47:43;;;;;;;5.25;1.88;;;;;;;7.26;36.38;95611.19;5027936;28;20521;-77
2022/02/14 08:50:10;;;;;;;4.97;1.92;;;;;;;7.93;38.50;95601.84;5028269;28;20056;-75
2022/02/14 08:52:36;;;;;;;4.07;2.03;;;;;;;8.39;36.37;95609.34;5027953;28;20053;-74
2022/02/14 08:55:04;;;;;;;3.10;1.73;;;;;;;8.74;33.22;95609.28;5027935;28;20053;-74
2022/02/14 08:57:30;;;;;;;6.78;1.98;;;;;;;8.72;31.81;95606.06;5028114;28;20053;-75
2022/02/14 08:59:58;;;;;;;3.63;1.88;;;;;;;8.58;32.18;95600.84;5027954;28;20049;-74
2022/02/14 09:02:25;;;;;;;5.40;2.03;;;;;;;8.56;33.24;95606.59;5028147;28;20056;-76
2022/02/14 09:04:51;;;;;;;6.88;2.17;;;;;;;8.43;33.10;95606.78;5014013;28;20406;-74
2022/02/14 09:07:18;;;;;;;3.25;1.95;;;;;;;8.25;34.43;95603.28;5008377;28;20583;-74
2022/02/14 09:09:44;;;;;;;3.42;1.90;;;;;;;8.16;34.27;95605.19;5007723;28;20523;-77
2022/02/14 09:12:11;;;;;;;5.47;2.20;;;;;;;8.06;34.70;95593.56;5025032;28;20057;-77
2022/02/14 09:14:37;;;;;;;3.72;1.90;;;;;;;7.96;33.42;95602.00;5028436;28;20057;-75
2022/02/14 09:17:05;;;;;;;5.75;1.85;;;;;;;7.89;33.73;95601.72;5027666;28;20456;-75
2022/02/14 09:19:32;;;;;;;7.22;2.03;;;;;;;7.90;34.27;95603.28;5027744;28;20052;-76
2022/02/14 09:21:58;;;;;;;4.47;2.08;;;;;;;8.06;34.52;95596.28;5027925;28;20144;-75
2022/02/14 09:24:25;;;;;;;3.65;2.20;;;;;;;8.37;34.39;95595.31;5027282;28;20045;-74
2022/02/14 09:26:52;;;;;;;6.63;2.28;;;;;;;8.75;33.59;95583.72;5027518;28;20052;-75
2022/02/14 09:29:19;;;;;;;7.63;2.35;;;;;;;9.17;34.13;95578.41;5027378;28;20500;-75
2022/02/14 09:31:45;;;;;;;4.90;2.65;;;;;;;9.38;31.67;95585.50;5027032;28;20050;-75
2022/02/14 09:34:13;;;;;;;5.00;1.80;;;;;;;9.70;30.44;95575.03;5027354;28;20054;-75
2022/02/14 09:36:40;;;;;;;4.82;2.13;;;;;;;9.69;30.66;95578.91;5027329;28;20053;-75
2022/02/14 09:39:08;;;;;;;6.10;2.20;;;;;;;9.56;32.96;95578.03;5027013;28;20053;-75
2022/02/14 09:41:35;;;;;;;5.53;2.10;;;;;;;9.56;34.12;95572.59;5024687;28;20045;-74
2022/02/14 09:44:03;;;;;;;5.35;2.55;;;;;;;10.03;31.62;95582.50;5027233;28;20049;-75
2022/02/14 09:46:31;;;;;;;7.40;2.60;;;;;;;10.71;31.23;95581.06;5027178;28;20053;-75
2022/02/14 09:49:01;;;;;;;7.45;2.20;;;;;;;11.39;29.11;95577.00;5026686;28;20543;-75
2022/02/14 09:51:29;;;;;;;6.00;2.40;;;;;;;11.80;29.15;95577.84;5027348;28;20048;-76
2022/02/14 09:53:56;;;;;;;4.60;2.08;;;;;;;12.34;28.36;95580.22;5026341;28;20126;-75
2022/02/14 09:56:23;;;;;;;4.38;2.10;;;;;;;12.86;28.18;95587.47;5027415;28;20057;-75
2022/02/14 09:58:50;;;;;;;8.52;2.00;;;;;;;13.07;27.57;95582.53;5026304;28;20140;-75
2022/02/14 10:01:17;;;;;;;7.43;2.78;;;;;;;13.58;27.71;95575.22;5026796;28;20049;-75
2022/02/14 10:03:50;;;;;;;5.60;2.13;;;;;;;13.64;26.88;95566.72;5026489;28;20045;-75
2022/02/14 10:06:25;;;;;;;7.72;2.60;;;;;;;13.66;27.85;95581.63;5026661;28;20084;-75
2022/02/14 10:09:06;;;;;;;5.85;2.30;;;;;;;13.95;27.03;95574.06;5026698;28;20064;-75
2022/02/14 10:11:35;;;;;;;5.10;2.58;;;;;;;14.07;25.73;95568.44;5023953;28;20164;-75
2022/02/14 10:14:14;;;;;;;5.75;2.35;;;;;;;14.20;27.00;95575.38;5027324;28;20049;-74
2022/02/14 10:16:57;;;;;;;6.03;3.08;;;;;;;14.24;27.60;95568.00;5026003;28;20060;-75
2022/02/14 10:19:24;;;;;;;;;;;;;;;14.14;31.04;95563.09;5027053;28;20050;-77
2022/02/14 10:21:51;;;;;;;7.88;3.25;;;;;;;13.92;31.15;95566.53;5026537;28;19929;-76
2022/02/14 10:24:19;;;;;;;9.60;3.83;;;;;;;13.53;33.38;95564.53;5026392;28;20060;-76
2022/02/14 10:26:47;;;;;;;10.63;4.93;;;;;;;13.16;36.96;95563.25;5026470;28;20041;-76
2022/02/14 10:29:16;;;;;;;9.77;4.25;;;;;;;12.89;38.21;95559.41;5025850;28;20045;-76
2022/02/14 10:31:44;;;;;;;11.02;4.72;;;;;;;12.56;37.25;95560.53;5027120;28;20061;-76
2022/02/14 10:34:11;;;;;;;10.63;5.18;;;;;;;12.11;37.33;95564.41;5025670;28;20504;-76
2022/02/14 10:36:39;;;;;;;9.57;5.20;;;;;;;11.84;40.23;95559.69;5026892;28;20060;-76
2022/02/14 10:39:11;;;;;;;10.70;5.50;;;;;;;11.66;39.73;95556.41;5025363;28;20076;-77
2022/02/14 10:41:40;;;;;;;12.00;5.50;;;;;;;11.43;39.82;95550.63;5024334;28;20049;-76
2022/02/14 10:44:13;;;;;;;8.07;4.65;;;;;;;11.20;41.22;95548.38;5025838;28;20623;-77
2022/02/14 10:46:40;;;;;;;8.93;4.68;;;;;;;10.99;42.42;95553.16;5026376;28;20057;-76
2022/02/14 10:49:07;;;;;;;12.52;5.25;;;;;;;10.89;42.63;95545.44;5026148;28;20049;-75
2022/02/14 10:51:34;;;;;;;11.30;4.78;;;;;;;10.85;42.66;95542.59;5030321;28;20064;-76
2022/02/14 10:54:03;;;;;;;9.93;4.82;;;;;;;10.69;44.41;95539.72;5031158;28;20163;-77
2022/02/14 10:56:40;;;;;;;10.30;5.03;;;;;;;10.50;43.56;95542.22;5029584;28;20045;-76
2022/02/14 10:59:11;;;;;;;8.02;4.90;;;;;;;10.40;45.31;95532.53;5030481;28;20049;-80
2022/02/14 11:01:40;;;;;;;10.60;4.93;;;;;;;10.42;45.28;95524.03;5030768;28;20420;-76
2022/02/14 11:04:07;;;;;;;10.43;4.82;;;;;;;10.40;46.08;95531.75;5030160;28;20061;-77
2022/02/14 11:06:38;;;;;;;9.40;5.28;;;;;;;10.35;45.75;95523.81;5030250;28;20124;-76
2022/02/14 11:09:05;;;;;;;11.60;5.13;;;;;;;10.31;44.28;95533.75;5029375;28;20049;-76
2022/02/14 11:11:36;;;;;;;10.98;4.85;;;;;;;10.14;44.42;95527.34;5027441;28;20452;-76
2022/02/14 11:14:05;;;;;;;11.63;5.10;;;;;;;10.19;46.09;95518.16;5029500;28;20140;-74
2022/02/14 11:16:33;;;;;;;19.08;5.57;;;;;;;10.29;45.73;95525.94;5030806;28;20531;-76
2022/02/14 11:19:02;;;;;;;8.15;4.47;;;;;;;10.47;44.57;95510.22;5029406;28;20048;-77
2022/02/14 11:21:33;;;;;;;11.88;5.38;;;;;;;10.50;44.04;95506.81;5029945;28;20061;-77
2022/02/14 11:24:10;;;;;;;10.25;5.38;;;;;;;10.50;44.51;95504.09;5029497;28;20053;-76
2022/02/14 11:26:44;;;;;;;10.98;5.47;;;;;;;10.64;45.48;95504.56;5030126;28;20049;-77
2022/02/14 11:29:25;;;;;;;9.65;4.78;;;;;;;10.62;44.59;95498.66;5029430;28;20049;-76
2022/02/14 11:32:15;;;;;;;13.38;5.05;;;;;;;10.60;46.25;95490.06;5029545;28;20046;-77
2022/02/14 11:34:56;;;;;;;9.52;4.40;;;;;;;10.73;44.32;95485.41;5030237;28;20052;-77
2022/02/14 11:37:23;;;;;;;12.05;4.93;;;;;;;11.02;44.62;95489.84;5029121;28;20063;-77